Time;durP1;ratioP1;P1;durP2;ratioP2;P2;SDS_P1;SDS_P2;PMS_P1;PMS_P2;Temp;Humidity;BMP_temperature;BMP_pressure;BME280_temperature;BME280_humidity;BME280_pressure;Samples;Min_cycle;Max_cycle;Signal;HPM_P1;HPM_P2
2021/08/16 00:01:48;;;;;;;37.53;9.23;;;29.20;30.60;;;;;;5009370;28;20056;-67
2021/08/16 00:04:13;;;;;;;33.17;10.02;;;29.20;30.60;;;;;;5007580;28;20067;-68
2021/08/16 00:06:39;;;;;;;40.80;10.35;;;29.20;30.60;;;;;;5013417;28;20041;-67
2021/08/16 00:09:07;;;;;;;34.88;8.88;;;29.20;30.50;;;;;;5029289;28;20033;-68
2021/08/16 00:11:33;;;;;;;33.50;8.98;;;29.20;30.30;;;;;;5020991;28;20030;-68
2021/08/16 00:13:59;;;;;;;34.92;9.48;;;29.00;30.00;;;;;;5026788;28;20040;-68
2021/08/16 00:16:25;;;;;;;33.00;8.50;;;29.00;30.00;;;;;;5023517;28;20037;-67
2021/08/16 00:18:50;;;;;;;30.65;9.35;;;29.00;30.00;;;;;;5023327;28;20447;-68
2021/08/16 00:21:16;;;;;;;41.08;9.55;;;29.00;29.90;;;;;;5005502;28;20383;-67
2021/08/16 00:23:42;;;;;;;34.03;8.73;;;29.10;30.00;;;;;;5027050;28;20045;-67
2021/08/16 00:26:07;;;;;;;36.40;10.05;;;29.20;30.00;;;;;;5010687;28;20120;-67
2021/08/16 00:28:33;;;;;;;39.53;8.32;;;29.10;29.90;;;;;;5026481;28;20054;-68
2021/08/16 00:30:59;;;;;;;36.70;9.20;;;29.10;30.00;;;;;;5006707;28;20041;-67
2021/08/16 00:33:24;;;;;;;32.88;8.30;;;29.10;29.90;;;;;;5012946;28;20116;-67
2021/08/16 00:35:50;;;;;;;36.92;9.07;;;29.20;30.00;;;;;;5021035;28;20072;-67
2021/08/16 00:38:15;;;;;;;33.45;9.30;;;29.20;29.90;;;;;;5026293;28;20033;-67
2021/08/16 00:40:41;;;;;;;31.20;8.63;;;29.20;29.90;;;;;;5027127;28;20029;-68
2021/08/16 00:43:06;;;;;;;21.38;7.70;;;29.20;29.90;;;;;;5016077;28;20052;-65
2021/08/16 00:45:32;;;;;;;34.05;8.35;;;29.20;30.00;;;;;;5019328;28;20396;-67
2021/08/16 00:47:58;;;;;;;28.52;8.25;;;29.00;29.90;;;;;;5009157;28;20067;-67
2021/08/16 00:50:24;;;;;;;31.75;8.55;;;29.00;30.00;;;;;;5029882;28;20083;-67
2021/08/16 00:52:50;;;;;;;34.90;8.50;;;29.00;29.90;;;;;;5020436;28;20483;-67
2021/08/16 00:55:16;;;;;;;27.40;8.68;;;29.00;29.90;;;;;;5007821;28;20084;-67
2021/08/16 00:57:43;;;;;;;32.85;8.32;;;29.10;30.00;;;;;;5004097;28;20049;-67
2021/08/16 01:00:11;;;;;;;37.88;9.55;;;29.00;29.60;;;;;;5029741;28;20041;-67
2021/08/16 01:02:42;;;;;;;37.10;9.27;;;28.90;29.80;;;;;;5004997;28;20048;-62
2021/08/16 01:05:11;;;;;;;32.60;7.72;;;28.90;29.90;;;;;;5028264;28;20034;-66
2021/08/16 01:07:37;;;;;;;28.58;7.93;;;28.90;30.10;;;;;;5020605;28;20103;-66
2021/08/16 01:10:05;;;;;;;32.97;8.77;;;29.00;30.20;;;;;;5026482;28;20037;-67
2021/08/16 01:12:32;;;;;;;26.52;8.13;;;29.10;30.10;;;;;;5022667;28;20124;-68
2021/08/16 01:14:58;;;;;;;31.30;8.43;;;29.00;30.00;;;;;;5025940;28;20041;-67
2021/08/16 01:17:23;;;;;;;33.05;9.00;;;29.00;29.80;;;;;;5023820;28;21339;-67
2021/08/16 01:19:49;;;;;;;38.45;9.18;;;29.00;30.20;;;;;;5025760;28;20543;-67
2021/08/16 01:22:16;;;;;;;30.25;8.38;;;28.90;30.00;;;;;;5021436;28;20117;-68
2021/08/16 01:24:43;;;;;;;42.15;9.57;;;28.80;30.00;;;;;;5020117;28;20033;-67
2021/08/16 01:27:11;;;;;;;27.90;8.98;;;28.60;30.00;;;;;;4993807;28;20038;-67
2021/08/16 01:29:37;;;;;;;44.03;10.20;;;28.70;30.10;;;;;;5018071;28;20045;-63
2021/08/16 01:32:03;;;;;;;29.77;7.82;;;28.80;30.40;;;;;;5025077;28;20030;-68
2021/08/16 01:34:30;;;;;;;30.98;8.50;;;28.90;30.20;;;;;;5023595;28;20048;-67
2021/08/16 01:36:56;;;;;;;37.92;9.07;;;28.90;30.50;;;;;;5025521;28;20470;-67
2021/08/16 01:39:22;;;;;;;35.72;8.88;;;28.90;30.40;;;;;;5023358;28;20033;-67
2021/08/16 01:41:48;;;;;;;31.92;8.68;;;28.90;30.40;;;;;;5025486;28;20042;-67
2021/08/16 01:44:16;;;;;;;26.70;7.82;;;28.90;30.00;;;;;;5018504;28;20083;-67
2021/08/16 01:46:43;;;;;;;29.52;8.27;;;28.90;30.00;;;;;;5026717;28;20033;-67
2021/08/16 01:49:08;;;;;;;29.83;8.43;;;28.90;30.10;;;;;;5011186;28;20033;-67
2021/08/16 01:51:36;;;;;;;33.15;7.50;;;28.90;30.30;;;;;;5002533;28;20427;-67
2021/08/16 01:54:02;;;;;;;34.22;9.10;;;29.00;30.40;;;;;;5013186;28;20037;-67
2021/08/16 01:56:28;;;;;;;28.05;7.47;;;29.00;30.40;;;;;;5031851;28;20095;-67
2021/08/16 01:58:53;;;;;;;28.27;8.30;;;29.00;30.50;;;;;;5022080;28;20457;-68
2021/08/16 02:01:19;;;;;;;28.83;8.52;;;29.00;30.40;;;;;;5011577;28;20038;-67
2021/08/16 02:03:44;;;;;;;31.23;8.63;;;29.00;30.80;;;;;;5007934;28;20022;-67
2021/08/16 02:06:10;;;;;;;28.35;8.65;;;28.90;30.00;;;;;;5006404;28;20115;-67
2021/08/16 02:08:35;;;;;;;35.58;9.10;;;28.90;30.50;;;;;;4993880;28;20029;-67
2021/08/16 02:11:01;;;;;;;25.60;8.15;;;28.90;30.70;;;;;;5012573;28;20063;-67
2021/08/16 02:13:27;;;;;;;34.50;8.13;;;28.90;30.60;;;;;;5024922;28;20049;-68
2021/08/16 02:15:53;;;;;;;35.90;8.63;;;28.90;30.50;;;;;;5016980;28;20051;-67
2021/08/16 02:18:19;;;;;;;30.00;8.63;;;28.80;30.50;;;;;;5030434;28;20038;-67
2021/08/16 02:20:44;;;;;;;30.80;8.23;;;28.80;30.60;;;;;;5017233;28;20029;-67
2021/08/16 02:23:10;;;;;;;27.10;7.32;;;28.80;30.30;;;;;;5030445;28;20073;-67
2021/08/16 02:25:35;;;;;;;27.23;7.40;;;28.80;30.70;;;;;;5030975;28;20056;-67
2021/08/16 02:28:01;;;;;;;31.88;8.30;;;28.90;30.70;;;;;;5019721;28;20148;-67
2021/08/16 02:30:27;;;;;;;30.23;8.63;;;28.90;30.30;;;;;;5017175;28;20042;-67
2021/08/16 02:32:52;;;;;;;30.70;8.43;;;28.80;30.70;;;;;;5007953;28;20064;-67
2021/08/16 02:35:18;;;;;;;33.58;8.32;;;28.90;31.00;;;;;;5011334;28;20081;-67
2021/08/16 02:37:43;;;;;;;29.50;9.40;;;28.80;31.10;;;;;;5016849;28;20515;-67
2021/08/16 02:40:11;;;;;;;30.63;7.70;;;28.80;31.30;;;;;;5015643;28;20040;-67
2021/08/16 02:42:37;;;;;;;26.77;7.90;;;28.80;31.50;;;;;;5003229;28;20469;-67
2021/08/16 02:45:03;;;;;;;34.30;8.70;;;28.80;31.40;;;;;;5020473;28;20061;-67
2021/08/16 02:47:29;;;;;;;34.65;9.02;;;28.80;31.10;;;;;;5023866;28;20402;-68
2021/08/16 02:49:54;;;;;;;29.83;8.23;;;28.80;30.90;;;;;;5029846;28;20042;-67
2021/08/16 02:52:20;;;;;;;33.22;9.18;;;28.70;31.80;;;;;;5006579;28;20506;-67
2021/08/16 02:54:45;;;;;;;25.55;7.93;;;28.60;30.90;;;;;;5028270;28;20053;-67
2021/08/16 02:57:12;;;;;;;28.73;8.00;;;28.60;30.60;;;;;;5009166;28;20038;-67
2021/08/16 02:59:39;;;;;;;28.42;8.35;;;28.60;30.60;;;;;;4995340;28;20042;-67
2021/08/16 03:02:08;;;;;;;29.65;9.00;;;28.50;30.70;;;;;;4997882;28;20034;-68
2021/08/16 03:04:34;;;;;;;34.70;8.27;;;28.50;30.80;;;;;;5001576;28;20034;-68
2021/08/16 03:07:01;;;;;;;26.92;8.00;;;28.60;31.00;;;;;;4998576;28;20050;-67
2021/08/16 03:09:27;;;;;;;35.70;9.15;;;28.50;30.70;;;;;;4997638;28;20041;-67
2021/08/16 03:11:54;;;;;;;31.90;9.30;;;28.50;30.60;;;;;;4993071;28;20049;-68
2021/08/16 03:14:19;;;;;;;26.52;7.47;;;28.60;31.00;;;;;;4993668;28;20101;-67
2021/08/16 03:16:45;;;;;;;43.72;8.95;;;28.50;31.10;;;;;;4992749;28;20480;-67
2021/08/16 03:19:11;;;;;;;26.65;8.30;;;28.50;31.20;;;;;;5000461;28;20034;-67
2021/08/16 03:21:37;;;;;;;31.75;8.82;;;28.50;31.10;;;;;;5000547;28;20038;-62
2021/08/16 03:24:03;;;;;;;28.73;8.00;;;28.50;31.50;;;;;;4998105;28;20038;-67
2021/08/16 03:26:28;;;;;;;28.63;8.95;;;28.40;31.50;;;;;;4996538;28;20038;-67
2021/08/16 03:28:54;;;;;;;27.15;8.15;;;28.30;31.80;;;;;;5003182;28;20133;-67
2021/08/16 03:31:20;;;;;;;33.92;8.70;;;28.30;32.10;;;;;;5001201;28;20030;-68
2021/08/16 03:33:46;;;;;;;24.73;7.68;;;28.30;32.20;;;;;;5000286;28;20456;-67
2021/08/16 03:36:12;;;;;;;35.75;9.07;;;28.20;32.00;;;;;;5006250;28;20045;-67
2021/08/16 03:38:38;;;;;;;27.15;7.80;;;28.20;32.20;;;;;;4993772;28;20088;-65
2021/08/16 03:41:04;;;;;;;31.80;8.43;;;28.20;32.40;;;;;;4994162;28;20042;-67
2021/08/16 03:43:30;;;;;;;30.73;8.38;;;28.20;32.30;;;;;;4990981;28;20034;-67
2021/08/16 03:45:55;;;;;;;29.98;7.70;;;28.20;32.70;;;;;;4996906;28;20038;-67
2021/08/16 03:48:21;;;;;;;34.50;9.35;;;28.10;32.60;;;;;;4995025;28;20038;-67
2021/08/16 03:50:47;;;;;;;27.70;8.25;;;28.10;32.60;;;;;;4995917;28;20168;-67
2021/08/16 03:53:13;;;;;;;37.40;9.15;;;28.10;32.00;;;;;;4995676;28;20483;-68
2021/08/16 03:55:40;;;;;;;37.05;8.63;;;28.00;31.90;;;;;;5000863;28;20049;-67
2021/08/16 03:58:06;;;;;;;31.27;8.15;;;28.00;32.20;;;;;;5011286;28;20128;-67
2021/08/16 04:00:31;;;;;;;32.70;7.78;;;28.00;31.90;;;;;;5020502;28;20071;-67
2021/08/16 04:02:57;;;;;;;35.80;8.02;;;27.90;32.40;;;;;;5028323;28;20096;-68
2021/08/16 04:05:24;;;;;;;28.10;7.38;;;27.90;32.30;;;;;;5007043;28;20053;-67
2021/08/16 04:07:49;;;;;;;28.83;7.95;;;27.90;32.40;;;;;;5028973;28;20471;-67
2021/08/16 04:10:17;;;;;;;24.85;7.95;;;28.00;32.30;;;;;;5010745;28;20042;-67
2021/08/16 04:12:44;;;;;;;34.72;8.30;;;28.00;32.30;;;;;;5025716;28;20041;-67
2021/08/16 04:15:12;;;;;;;24.95;7.25;;;28.00;32.20;;;;;;5025503;28;20041;-67
2021/08/16 04:17:38;;;;;;;32.25;8.38;;;27.90;32.20;;;;;;5026759;28;20033;-67
2021/08/16 04:20:05;;;;;;;30.23;7.55;;;27.80;32.00;;;;;;5024578;28;20521;-67
2021/08/16 04:22:31;;;;;;;30.73;7.93;;;27.90;32.40;;;;;;5028606;28;20094;-68
2021/08/16 04:24:56;;;;;;;30.02;9.27;;;27.90;32.00;;;;;;5012079;28;20034;-68
2021/08/16 04:27:22;;;;;;;29.90;7.65;;;27.90;32.50;;;;;;5021109;28;20403;-68
2021/08/16 04:29:47;;;;;;;35.35;9.07;;;27.80;33.00;;;;;;5015457;28;20506;-68
2021/08/16 04:32:13;;;;;;;26.15;8.23;;;27.80;32.20;;;;;;5020542;28;20041;-67
2021/08/16 04:34:38;;;;;;;26.67;7.40;;;27.80;32.10;;;;;;5024830;28;20022;-67
2021/08/16 04:37:04;;;;;;;28.15;8.40;;;27.80;32.10;;;;;;5024521;28;20045;-68
2021/08/16 04:39:30;;;;;;;35.35;9.10;;;27.80;32.10;;;;;;5021902;28;20062;-67
2021/08/16 04:41:55;;;;;;;26.50;7.05;;;27.70;31.80;;;;;;5005886;28;20046;-67
2021/08/16 04:44:21;;;;;;;31.45;7.65;;;27.80;32.10;;;;;;5009249;28;20446;-68
2021/08/16 04:46:47;;;;;;;34.53;8.55;;;27.80;32.20;;;;;;5019798;28;20038;-67
2021/08/16 04:49:13;;;;;;;28.95;8.63;;;27.80;32.10;;;;;;5027386;28;20045;-66
2021/08/16 04:51:38;;;;;;;26.27;7.75;;;27.80;32.10;;;;;;5023700;28;20037;-66
2021/08/16 04:54:04;;;;;;;31.90;8.63;;;27.80;31.90;;;;;;5008940;28;20446;-68
2021/08/16 04:56:29;;;;;;;26.83;7.63;;;27.90;32.00;;;;;;5024200;28;20070;-68
2021/08/16 04:58:57;;;;;;;25.85;6.68;;;28.00;31.80;;;;;;5024959;28;20060;-67
2021/08/16 05:01:23;;;;;;;23.63;7.05;;;28.00;32.00;;;;;;5002546;28;20034;-67
2021/08/16 05:03:49;;;;;;;25.25;7.88;;;28.00;32.20;;;;;;5011963;28;20065;-67
2021/08/16 05:06:15;;;;;;;33.30;8.32;;;28.00;32.40;;;;;;5003455;28;20053;-67
2021/08/16 05:08:40;;;;;;;28.67;8.43;;;28.10;32.20;;;;;;5020051;28;20100;-67
2021/08/16 05:11:06;;;;;;;31.58;8.02;;;28.10;32.40;;;;;;5024336;28;20060;-68
2021/08/16 05:13:33;;;;;;;30.17;7.65;;;28.20;32.80;;;;;;5021895;28;20042;-67
2021/08/16 05:15:59;;;;;;;28.85;8.75;;;28.20;32.70;;;;;;5029006;28;20041;-67
2021/08/16 05:18:25;;;;;;;30.33;7.45;;;28.10;32.60;;;;;;5022750;28;20072;-67
2021/08/16 05:20:51;;;;;;;27.05;8.15;;;28.10;33.10;;;;;;5018738;28;20045;-67
2021/08/16 05:23:20;;;;;;;31.10;8.55;;;28.10;33.40;;;;;;5007544;28;20048;-67
2021/08/16 05:25:46;;;;;;;34.72;8.00;;;28.10;34.20;;;;;;5023034;28;20065;-66
2021/08/16 05:28:12;;;;;;;27.65;7.95;;;28.10;34.50;;;;;;5012548;28;20128;-66
2021/08/16 05:30:38;;;;;;;25.50;8.25;;;28.10;34.80;;;;;;5021958;28;20033;-65
2021/08/16 05:33:04;;;;;;;33.30;8.85;;;28.10;35.30;;;;;;5005714;28;20060;-67
2021/08/16 05:35:30;;;;;;;27.23;8.23;;;28.10;36.10;;;;;;5026678;28;20483;-67
2021/08/16 05:37:57;;;;;;;28.65;8.48;;;28.10;36.60;;;;;;5015758;28;20060;-67
2021/08/16 05:40:23;;;;;;;25.25;8.25;;;28.10;37.10;;;;;;5009820;28;20038;-67
2021/08/16 05:42:48;;;;;;;29.25;7.50;;;28.20;37.10;;;;;;5006828;28;20195;-67
2021/08/16 05:45:14;;;;;;;29.55;8.23;;;28.20;37.20;;;;;;5014997;28;20038;-67
2021/08/16 05:47:40;;;;;;;23.83;8.20;;;28.10;37.00;;;;;;5003445;28;20046;-67
2021/08/16 05:50:06;;;;;;;30.27;9.00;;;28.20;36.60;;;;;;5014364;28;20394;-67
2021/08/16 05:52:33;;;;;;;30.90;8.32;;;28.10;35.70;;;;;;5007382;28;20491;-67
2021/08/16 05:54:58;;;;;;;39.95;9.50;;;28.20;35.80;;;;;;5007426;28;20103;-67
2021/08/16 05:57:24;;;;;;;29.05;8.10;;;28.30;35.50;;;;;;5026167;28;20065;-67
2021/08/16 05:59:50;;;;;;;29.75;8.07;;;28.30;35.10;;;;;;5022367;28;20037;-67
2021/08/16 06:02:15;;;;;;;34.05;9.27;;;28.30;35.20;;;;;;5026519;28;20030;-67
2021/08/16 06:04:41;;;;;;;28.08;8.15;;;28.40;35.40;;;;;;5021680;28;20400;-67
2021/08/16 06:07:06;;;;;;;31.67;8.90;;;28.40;34.90;;;;;;5025830;28;20069;-67
2021/08/16 06:09:32;;;;;;;31.92;8.23;;;28.40;35.00;;;;;;5016839;28;20141;-67
2021/08/16 06:11:57;;;;;;;29.40;8.65;;;28.40;35.00;;;;;;5026791;28;20049;-67
2021/08/16 06:14:23;;;;;;;31.90;7.88;;;28.40;35.10;;;;;;5020835;28;20091;-67
2021/08/16 06:16:49;;;;;;;28.38;8.82;;;28.50;34.90;;;;;;5025553;28;21004;-67
2021/08/16 06:19:14;;;;;;;29.55;8.32;;;28.40;35.00;;;;;;5013108;28;20137;-67
2021/08/16 06:21:42;;;;;;;27.55;9.13;;;28.40;34.90;;;;;;5009100;28;20121;-63
2021/08/16 06:24:11;;;;;;;32.70;9.13;;;28.50;34.90;;;;;;5002489;28;20065;-68
2021/08/16 06:26:37;;;;;;;30.80;9.35;;;28.50;34.90;;;;;;5004997;28;20120;-68
2021/08/16 06:29:04;;;;;;;35.97;8.95;;;28.50;34.90;;;;;;5006714;28;20041;-67
2021/08/16 06:31:30;;;;;;;30.58;7.35;;;28.60;34.60;;;;;;4993487;28;23076;-68
2021/08/16 06:33:55;;;;;;;28.52;8.52;;;28.60;34.40;;;;;;5017799;28;20066;-67
2021/08/16 06:36:21;;;;;;;31.98;8.73;;;28.60;34.80;;;;;;5007339;28;20053;-67
2021/08/16 06:38:48;;;;;;;29.10;9.18;;;28.60;34.50;;;;;;5028781;28;20704;-67
2021/08/16 06:41:15;;;;;;;35.47;8.48;;;28.70;34.60;;;;;;5025826;28;20450;-67
2021/08/16 06:43:42;;;;;;;29.45;9.75;;;28.70;34.40;;;;;;5026715;28;20033;-67
2021/08/16 06:46:08;;;;;;;33.28;8.18;;;28.80;34.50;;;;;;5025724;28;20041;-68
2021/08/16 06:48:33;;;;;;;29.33;8.18;;;28.80;34.40;;;;;;5028815;28;20479;-67
2021/08/16 06:50:59;;;;;;;30.30;8.95;;;28.80;34.90;;;;;;5024521;28;20045;-67
2021/08/16 06:53:25;;;;;;;31.83;9.77;;;28.90;35.40;;;;;;5024780;28;20029;-67
2021/08/16 06:55:52;;;;;;;26.48;8.27;;;28.90;36.30;;;;;;5017056;28;20045;-67
2021/08/16 06:58:19;;;;;;;24.40;9.02;;;29.00;37.00;;;;;;5012076;28;20488;-67
2021/08/16 07:00:45;;;;;;;19.92;7.50;;;29.10;37.70;;;;;;5013390;28;20029;-67
2021/08/16 07:03:11;;;;;;;20.27;8.50;;;29.10;39.00;;;;;;5022637;28;20049;-66
2021/08/16 07:05:41;;;;;;;21.02;8.60;;;29.00;41.30;;;;;;5023604;28;20040;-68
2021/08/16 07:08:06;;;;;;;23.23;9.05;;;29.10;41.70;;;;;;5011123;28;20046;-67
2021/08/16 07:10:32;;;;;;;23.55;8.40;;;29.10;41.20;;;;;;5015858;28;20076;-67
2021/08/16 07:13:09;;;;;;;20.98;8.70;;;29.20;41.60;;;;;;5007350;28;20038;-67
2021/08/16 07:15:34;;;;;;;19.38;7.85;;;29.20;43.20;;;;;;5027678;28;20636;-67
2021/08/16 07:18:00;;;;;;;18.55;7.53;;;29.30;44.00;;;;;;5026223;28;20132;-67
2021/08/16 07:20:27;;;;;;;13.25;7.88;;;29.20;46.00;;;;;;5028528;28;20033;-67
2021/08/16 07:22:53;;;;;;;14.80;8.43;;;29.20;48.00;;;;;;5025136;28;20036;-68
2021/08/16 07:25:18;;;;;;;12.20;8.15;;;29.20;48.80;;;;;;5027908;28;20034;-67
2021/08/16 07:27:44;;;;;;;16.33;8.57;;;29.20;50.00;;;;;;5024271;28;20028;-67
2021/08/16 07:30:10;;;;;;;14.85;9.23;;;29.20;51.30;;;;;;5024603;28;20053;-67
2021/08/16 07:32:36;;;;;;;16.02;8.85;;;29.30;52.70;;;;;;5017693;28;20522;-68
2021/08/16 07:35:01;;;;;;;15.50;8.63;;;29.30;53.60;;;;;;5028529;28;20049;-67
2021/08/16 07:37:27;;;;;;;14.63;8.93;;;29.30;54.50;;;;;;5028282;28;20120;-67
2021/08/16 07:39:52;;;;;;;11.50;8.07;;;29.40;55.30;;;;;;5027105;28;20505;-68
2021/08/16 07:42:20;;;;;;;11.73;9.40;;;29.40;55.80;;;;;;5012113;28;20065;-67
2021/08/16 07:44:46;;;;;;;14.70;9.02;;;29.50;56.50;;;;;;5009045;28;20145;-67
2021/08/16 07:47:12;;;;;;;9.98;8.95;;;29.40;58.00;;;;;;5020676;28;20041;-67
2021/08/16 07:49:37;;;;;;;10.75;9.57;;;29.50;58.30;;;;;;5010255;28;20029;-68
2021/08/16 07:52:03;;;;;;;13.02;8.77;;;29.50;60.00;;;;;;5012293;28;20030;-68
2021/08/16 07:54:29;;;;;;;10.18;9.18;;;29.60;59.00;;;;;;5020721;28;20156;-67
2021/08/16 07:56:54;;;;;;;12.88;11.13;;;29.50;62.30;;;;;;5028477;28;20050;-68
2021/08/16 07:59:20;;;;;;;12.95;10.35;;;29.50;62.60;;;;;;5023376;28;20491;-68
2021/08/16 08:01:47;;;;;;;11.77;9.65;;;29.50;63.00;;;;;;5028563;28;20050;-67
2021/08/16 08:04:14;;;;;;;13.18;10.18;;;29.70;63.30;;;;;;5023947;28;20120;-67
2021/08/16 08:06:39;;;;;;;11.10;9.93;;;29.70;64.00;;;;;;5029669;28;20113;-67
2021/08/16 08:09:05;;;;;;;11.65;10.35;;;29.70;65.20;;;;;;5008667;28;20518;-67
2021/08/16 08:11:30;;;;;;;13.70;10.02;;;29.80;66.40;;;;;;5026007;28;20038;-67
2021/08/16 08:13:56;;;;;;;10.57;9.45;;;29.70;68.00;;;;;;5021258;28;20042;-67
2021/08/16 08:16:21;;;;;;;9.80;8.73;;;29.80;67.00;;;;;;5009541;28;20057;-67
2021/08/16 08:18:47;;;;;;;12.35;11.15;;;29.70;66.50;;;;;;5003658;28;20515;-67
2021/08/16 08:21:13;;;;;;;11.65;9.75;;;29.80;66.90;;;;;;5003917;28;20120;-67
2021/08/16 08:23:38;;;;;;;10.32;8.75;;;29.80;67.80;;;;;;5009471;28;20060;-69
2021/08/16 08:26:04;;;;;;;10.90;9.50;;;29.80;67.10;;;;;;5008909;28;20038;-67
2021/08/16 08:28:30;;;;;;;10.38;9.30;;;29.80;66.60;;;;;;5008116;28;20052;-67
2021/08/16 08:30:56;;;;;;;13.20;11.02;;;29.90;65.80;;;;;;5018274;28;20061;-67
2021/08/16 08:33:22;;;;;;;12.05;10.60;;;30.00;65.80;;;;;;5029449;28;20037;-67
2021/08/16 08:35:48;;;;;;;11.88;9.77;;;30.00;66.90;;;;;;5023030;28;20074;-67
2021/08/16 08:38:14;;;;;;;12.07;10.10;;;30.00;65.80;;;;;;5019362;28;20196;-67
2021/08/16 08:40:41;;;;;;;11.90;10.80;;;30.10;66.10;;;;;;5012662;28;20045;-67
2021/08/16 08:43:11;;;;;;;11.93;10.85;;;30.10;65.30;;;;;;5021616;28;20033;-67
2021/08/16 08:45:38;;;;;;;11.27;9.52;;;30.30;65.00;;;;;;5005690;28;20041;-68
2021/08/16 08:48:04;;;;;;;18.23;10.65;;;30.30;64.30;;;;;;5012117;28;20037;-68
2021/08/16 08:50:30;;;;;;;12.25;10.98;;;30.40;64.00;;;;;;5019577;28;22683;-67
2021/08/16 08:53:00;;;;;;;15.85;10.68;;;30.30;63.30;;;;;;5029488;28;20072;-67
2021/08/16 08:55:27;;;;;;;14.23;11.48;;;30.30;63.00;;;;;;5015617;28;20052;-68
2021/08/16 08:57:53;;;;;;;12.02;10.75;;;30.40;62.80;;;;;;5022892;28;20046;-68
2021/08/16 09:00:19;;;;;;;12.48;11.25;;;30.40;62.90;;;;;;5007862;28;20088;-68
2021/08/16 09:03:01;;;;;;;16.85;10.85;;;30.40;62.10;;;;;;5007850;28;20101;-68
2021/08/16 09:05:28;;;;;;;14.85;11.40;;;30.60;62.70;;;;;;5008224;28;20036;-69
2021/08/16 09:07:58;;;;;;;11.45;10.30;;;30.60;61.90;;;;;;5009039;28;20033;-68
2021/08/16 09:10:27;;;;;;;18.42;12.18;;;30.70;61.80;;;;;;5004623;28;20133;-68
2021/08/16 09:12:58;;;;;;;16.42;13.00;;;30.70;61.50;;;;;;5005553;28;20030;-68
2021/08/16 09:15:25;;;;;;;12.30;11.10;;;30.80;61.80;;;;;;5018126;28;20042;-68
2021/08/16 09:17:52;;;;;;;11.57;10.50;;;30.80;60.80;;;;;;5016052;28;20033;-68
2021/08/16 09:20:32;;;;;;;14.20;10.98;;;30.80;59.70;;;;;;5027990;28;20041;-68
2021/08/16 09:23:07;;;;;;;13.38;10.63;;;31.00;59.10;;;;;;5021934;28;20148;-68
2021/08/16 09:25:39;;;;;;;11.32;10.23;;;30.80;58.00;;;;;;5026367;28;20065;-68
2021/08/16 09:28:06;;;;;;;12.57;11.10;;;30.90;58.60;;;;;;5023275;28;20037;-68
2021/08/16 09:30:40;;;;;;;12.80;11.50;;;31.00;58.60;;;;;;5027514;28;20121;-68
2021/08/16 09:33:17;;;;;;;10.80;9.70;;;30.90;59.30;;;;;;5014386;28;20499;-68
2021/08/16 09:35:55;;;;;;;12.20;8.65;;;31.00;59.50;;;;;;5026570;28;20491;-67
2021/08/16 09:38:41;;;;;;;10.43;9.32;;;31.20;57.20;;;;;;5008407;28;20041;-68
2021/08/16 09:41:23;;;;;;;10.55;9.52;;;31.40;55.70;;;;;;5009086;28;20445;-68
2021/08/16 09:43:50;;;;;;;11.10;9.80;;;31.40;56.40;;;;;;4972531;28;20034;-68
2021/08/16 09:46:17;;;;;;;10.00;9.00;;;31.40;56.70;;;;;;5005494;28;20546;-67
2021/08/16 09:48:44;;;;;;;11.27;9.85;;;31.40;56.60;;;;;;5002073;28;20084;-67
2021/08/16 09:51:23;;;;;;;11.95;8.75;;;31.30;56.40;;;;;;5004509;28;20046;-67
2021/08/16 09:53:50;;;;;;;10.63;8.60;;;31.40;55.90;;;;;;4976489;28;20448;-68
2021/08/16 09:56:20;;;;;;;10.90;9.10;;;31.50;54.40;;;;;;5012839;28;20550;-68
2021/08/16 09:58:46;;;;;;;11.75;9.15;;;31.50;54.30;;;;;;5002848;28;20148;-68
2021/08/16 10:01:13;;;;;;;9.85;8.88;;;31.50;54.10;;;;;;5011760;28;20030;-67
2021/08/16 10:03:39;;;;;;;10.38;9.48;;;31.60;54.30;;;;;;5007716;28;20128;-67
2021/08/16 10:06:07;;;;;;;12.02;10.20;;;31.70;54.00;;;;;;5012384;28;20030;-68
2021/08/16 10:08:38;;;;;;;10.15;9.27;;;31.60;53.90;;;;;;5020415;28;20117;-67
2021/08/16 10:11:05;;;;;;;11.18;9.93;;;31.80;54.30;;;;;;5031419;28;20037;-67
2021/08/16 10:13:34;;;;;;;12.13;9.55;;;31.90;53.20;;;;;;5025060;28;20049;-68
2021/08/16 10:16:04;;;;;;;11.07;10.07;;;32.10;52.70;;;;;;5025761;28;20119;-67
2021/08/16 10:18:45;;;;;;;10.95;9.23;;;32.00;52.60;;;;;;5027151;28;20822;-68
2021/08/16 10:21:17;;;;;;;11.38;10.27;;;32.30;52.40;;;;;;5030476;28;20037;-62
2021/08/16 10:23:48;;;;;;;11.63;8.95;;;32.40;51.70;;;;;;5025835;28;20025;-67
2021/08/16 10:26:24;;;;;;;10.50;9.55;;;32.50;50.90;;;;;;5020013;28;20399;-67
2021/08/16 10:29:01;;;;;;;13.15;8.90;;;32.50;49.30;;;;;;5019830;28;20102;-67
2021/08/16 10:31:35;;;;;;;11.70;9.18;;;32.60;49.70;;;;;;5011606;28;20105;-68
2021/08/16 10:34:01;;;;;;;10.30;9.45;;;32.80;49.60;;;;;;5012949;28;20400;-68
2021/08/16 10:36:28;;;;;;;11.05;9.60;;;33.10;48.60;;;;;;5030367;28;20072;-67
2021/08/16 10:38:56;;;;;;;10.63;9.23;;;33.30;47.90;;;;;;5030331;28;20029;-67
2021/08/16 10:41:39;;;;;;;12.90;9.30;;;33.60;47.10;;;;;;5026907;28;20128;-68
2021/08/16 10:44:17;;;;;;;10.82;9.82;;;33.70;46.20;;;;;;5025718;28;20037;-67
2021/08/16 10:46:57;;;;;;;10.15;9.10;;;33.60;45.80;;;;;;5027884;28;20030;-67
2021/08/16 10:49:32;;;;;;;10.32;9.30;;;33.60;45.80;;;;;;5025807;28;20033;-68
2021/08/16 10:51:57;;;;;;;11.60;9.25;;;33.40;45.90;;;;;;5030838;28;20033;-68
2021/08/16 10:54:28;;;;;;;11.30;9.32;;;33.50;45.90;;;;;;5028163;28;20557;-68
2021/08/16 10:56:55;;;;;;;10.32;9.32;;;33.40;45.80;;;;;;5027206;28;20045;-68
2021/08/16 10:59:26;;;;;;;10.40;9.35;;;33.50;45.70;;;;;;5032546;28;20037;-68
2021/08/16 11:01:53;;;;;;;10.95;9.02;;;33.70;45.40;;;;;;5014238;28;20054;-68
2021/08/16 11:04:26;;;;;;;11.07;9.90;;;33.70;44.40;;;;;;5013054;28;20171;-68
2021/08/16 11:07:00;;;;;;;12.53;10.23;;;33.40;44.40;;;;;;5024259;28;20033;-68
2021/08/16 11:09:28;;;;;;;10.63;8.85;;;33.20;44.50;;;;;;5028382;28;20050;-67
2021/08/16 11:12:02;;;;;;;13.80;9.48;;;33.20;44.50;;;;;;5024306;28;20068;-68
2021/08/16 11:14:27;;;;;;;;;;;33.40;43.80;;;;;;5027004;28;20041;-67
2021/08/16 11:16:54;;;;;;;11.65;9.90;;;33.90;43.50;;;;;;5025650;28;20286;-67
2021/08/16 11:19:20;;;;;;;9.55;8.73;;;34.30;44.00;;;;;;5017606;28;20041;-67
2021/08/16 11:21:53;;;;;;;11.32;9.88;;;34.20;43.90;;;;;;5020178;28;20459;-67
2021/08/16 11:24:34;;;;;;;11.63;9.87;;;34.10;44.30;;;;;;5004861;28;20053;-68
2021/08/16 11:27:03;;;;;;;10.10;9.20;;;33.90;44.60;;;;;;5010881;28;20438;-68
2021/08/16 11:29:29;;;;;;;11.77;8.55;;;34.00;44.70;;;;;;5025447;28;20069;-68
2021/08/16 11:32:07;;;;;;;11.40;9.68;;;34.40;43.70;;;;;;5022196;28;20111;-69
2021/08/16 11:34:46;;;;;;;11.95;10.35;;;34.60;43.10;;;;;;5030984;28;20057;-70
2021/08/16 11:37:13;;;;;;;11.77;10.57;;;36.20;41.00;;;;;;5026132;28;20045;-67
2021/08/16 11:39:39;;;;;;;12.32;10.43;;;37.90;37.50;;;;;;5029284;28;20037;-69
2021/08/16 11:42:05;;;;;;;11.10;9.75;;;39.20;35.00;;;;;;5025255;28;20040;-69
2021/08/16 11:44:32;;;;;;;10.77;9.73;;;38.80;33.90;;;;;;5028099;28;20049;-69
2021/08/16 11:47:00;;;;;;;11.02;9.88;;;38.30;33.20;;;;;;5026133;28;20045;-69
2021/08/16 11:49:30;;;;;;;10.88;9.77;;;38.90;33.60;;;;;;5025049;28;20048;-69
2021/08/16 11:51:56;;;;;;;10.48;9.40;;;40.00;31.70;;;;;;5022443;28;20561;-70
2021/08/16 11:54:28;;;;;;;10.82;9.65;;;40.90;30.30;;;;;;5023656;28;20060;-70
2021/08/16 11:56:57;;;;;;;15.25;10.30;;;40.50;30.00;;;;;;5011434;28;20065;-69
2021/08/16 11:59:23;;;;;;;11.55;10.25;;;39.30;30.20;;;;;;5007717;28;20567;-69
2021/08/16 12:01:50;;;;;;;15.73;11.05;;;39.60;30.50;;;;;;5008816;28;20048;-69
2021/08/16 12:04:16;;;;;;;13.85;9.13;;;39.20;30.00;;;;;;5013982;28;20525;-69
2021/08/16 12:06:46;;;;;;;14.88;9.88;;;39.80;29.70;;;;;;5026866;28;20037;-69
2021/08/16 12:09:11;;;;;;;16.38;10.07;;;38.60;29.70;;;;;;5022576;28;20124;-68
2021/08/16 12:11:38;;;;;;;18.38;10.98;;;37.50;32.50;;;;;;5030086;28;20116;-70
2021/08/16 12:14:05;;;;;;;16.73;10.18;;;39.80;29.60;;;;;;5024367;28;20060;-70
2021/08/16 12:16:33;;;;;;;20.83;10.77;;;40.60;27.80;;;;;;5029167;28;20038;-69
2021/08/16 12:19:00;;;;;;;23.85;10.60;;;39.80;28.40;;;;;;5022264;28;20041;-70
2021/08/16 12:21:27;;;;;;;23.00;10.35;;;37.70;30.00;;;;;;5027744;28;21000;-69
2021/08/16 12:23:55;;;;;;;20.98;9.95;;;38.90;31.00;;;;;;5009762;28;20039;-69
2021/08/16 12:26:36;;;;;;;15.27;10.23;;;41.20;28.10;;;;;;5028463;28;20030;-69
2021/08/16 12:29:02;;;;;;;18.08;9.73;;;42.50;27.10;;;;;;5022123;28;20041;-70
2021/08/16 12:31:30;;;;;;;23.00;10.43;;;42.70;26.60;;;;;;5027641;28;20040;-70
2021/08/16 12:34:04;;;;;;;19.45;10.20;;;41.60;26.70;;;;;;5023039;28;20034;-70
2021/08/16 12:36:30;;;;;;;20.15;10.95;;;38.60;28.80;;;;;;5029742;28;20033;-70